createdAt,value
2022-09-27T00:01:03.653Z,16.79
2022-09-27T00:03:31.625Z,16.50
2022-09-27T00:06:05.293Z,16.33
2022-09-27T00:08:33.502Z,16.79
2022-09-27T00:11:02.106Z,16.09
2022-09-27T00:13:31.386Z,16.79
2022-09-27T00:15:59.432Z,16.05
2022-09-27T00:18:27.381Z,16.79
2022-09-27T00:20:55.091Z,16.76
2022-09-27T00:23:22.853Z,16.75
2022-09-27T00:25:57.452Z,16.12
2022-09-27T00:28:27.617Z,16.61
2022-09-27T00:31:10.788Z,16.73
2022-09-27T00:33:39.559Z,16.74
2022-09-27T00:36:11.742Z,16.36
2022-09-27T00:38:46.214Z,16.32
2022-09-27T00:41:21.600Z,16.75
2022-09-27T00:43:52.849Z,16.66
2022-09-27T00:46:25.263Z,16.77
2022-09-27T00:49:06.242Z,16.75
2022-09-27T00:51:40.521Z,16.63
2022-09-27T00:54:15.659Z,16.75
2022-09-27T00:56:49.458Z,16.76
2022-09-27T00:59:27.710Z,16.36
2022-09-27T01:01:58.943Z,16.63
2022-09-27T01:04:38.259Z,16.76
2022-09-27T01:07:06.489Z,16.73
2022-09-27T01:09:35.025Z,16.46
2022-09-27T01:12:07.104Z,16.46
2022-09-27T01:14:42.725Z,16.09
2022-09-27T01:17:21.243Z,16.73
2022-09-27T01:20:13.280Z,16.35
2022-09-27T01:22:45.981Z,16.71
2022-09-27T01:25:36.763Z,16.72
2022-09-27T01:28:17.771Z,16.29
2022-09-27T01:30:49.284Z,16.69
2022-09-27T01:33:34.976Z,16.70
2022-09-27T01:36:27.847Z,16.66
2022-09-27T01:39:12.311Z,16.68
2022-09-27T01:41:50.369Z,16.67
2022-09-27T01:44:23.497Z,16.65
2022-09-27T01:47:03.355Z,16.50
2022-09-27T01:49:37.226Z,16.20
2022-09-27T01:52:09.326Z,16.67
2022-09-27T01:54:39.344Z,16.67
2022-09-27T01:57:07.744Z,16.42
2022-09-27T01:59:37.978Z,16.53
2022-09-27T02:02:12.489Z,16.53
2022-09-27T02:04:41.457Z,16.67
2022-09-27T02:07:16.757Z,16.66
2022-09-27T02:09:48.843Z,16.02
2022-09-27T02:12:22.667Z,16.38
2022-09-27T02:14:54.323Z,16.65
2022-09-27T02:17:30.169Z,16.49
2022-09-27T02:20:04.528Z,16.29
2022-09-27T02:22:35.116Z,16.64
2022-09-27T02:25:07.341Z,16.66
2022-09-27T02:27:37.194Z,16.27
2022-09-27T02:30:15.926Z,16.31
2022-09-27T02:32:48.558Z,16.63
2022-09-27T02:35:21.754Z,16.47
2022-09-27T02:37:58.607Z,16.61
2022-09-27T02:40:41.861Z,16.18
2022-09-27T02:43:10.278Z,16.41
2022-09-27T02:45:44.186Z,16.15
2022-09-27T02:48:21.148Z,16.60
2022-09-27T02:51:07.781Z,15.76
2022-09-27T02:53:41.097Z,16.60
2022-09-27T02:56:11.920Z,15.95
2022-09-27T02:58:47.316Z,16.02
2022-09-27T03:01:18.960Z,16.36
2022-09-27T03:03:54.105Z,16.22
2022-09-27T03:06:28.105Z,16.31
2022-09-27T03:08:57.108Z,16.16
2022-09-27T03:11:25.362Z,16.59
2022-09-27T03:14:07.912Z,16.58
2022-09-27T03:16:41.933Z,16.07
2022-09-27T03:19:11.734Z,16.43
2022-09-27T03:21:40.222Z,16.53
2022-09-27T03:24:08.486Z,16.53
2022-09-27T03:26:36.566Z,16.26
2022-09-27T03:29:04.910Z,16.38
2022-09-27T03:31:35.979Z,16.47
2022-09-27T03:34:07.343Z,16.50
2022-09-27T03:36:39.908Z,16.02
2022-09-27T03:39:09.623Z,16.53
2022-09-27T03:41:40.048Z,16.53
2022-09-27T03:44:08.576Z,16.44
2022-09-27T03:46:37.918Z,16.55
2022-09-27T03:49:06.112Z,16.54
2022-09-27T03:51:37.952Z,16.25
2022-09-27T03:54:14.235Z,16.31
2022-09-27T03:56:42.411Z,16.53
2022-09-27T03:59:33.880Z,16.52
2022-09-27T04:02:02.174Z,16.50
2022-09-27T04:04:30.697Z,16.49
2022-09-27T04:07:09.469Z,16.15
2022-09-27T04:09:44.742Z,16.04
2022-09-27T04:12:13.114Z,16.45
2022-09-27T04:14:41.575Z,15.90
2022-09-27T04:17:09.837Z,16.22
2022-09-27T04:19:42.991Z,16.46
2022-09-27T04:22:12.362Z,16.27
2022-09-27T04:24:47.323Z,16.45
2022-09-27T04:27:18.775Z,16.30
2022-09-27T04:29:55.446Z,16.33
2022-09-27T04:32:44.948Z,15.04
2022-09-27T04:35:35.785Z,16.45
2022-09-27T04:38:19.969Z,15.62
2022-09-27T04:40:49.322Z,16.47
2022-09-27T04:43:17.069Z,16.11
2022-09-27T04:45:44.942Z,16.47
2022-09-27T04:48:12.754Z,16.45
2022-09-27T04:50:41.251Z,16.44
2022-09-27T04:53:09.116Z,16.44
2022-09-27T04:55:36.792Z,16.44
2022-09-27T04:58:06.094Z,16.42
2022-09-27T05:00:33.786Z,16.40
2022-09-27T05:03:01.579Z,16.37
2022-09-27T05:05:29.418Z,16.39
2022-09-27T05:07:57.118Z,16.39
2022-09-27T05:10:24.763Z,16.39
2022-09-27T05:12:52.446Z,16.39
2022-09-27T05:15:21.450Z,16.38
2022-09-27T05:17:49.161Z,16.31
2022-09-27T05:20:16.964Z,16.25
2022-09-27T05:22:44.679Z,16.31
2022-09-27T05:25:12.384Z,16.30
2022-09-27T05:27:40.119Z,16.31
2022-09-27T05:30:08.530Z,16.27
2022-09-27T05:32:37.800Z,16.24
2022-09-27T05:35:06.244Z,16.28
2022-09-27T05:37:34.224Z,16.26
2022-09-27T05:40:12.213Z,16.28
2022-09-27T05:42:50.464Z,16.29
2022-09-27T05:45:18.128Z,16.30
2022-09-27T05:47:54.651Z,16.32
2022-09-27T05:50:22.315Z,16.31
2022-09-27T05:52:50.234Z,16.31
2022-09-27T05:55:17.900Z,16.32
2022-09-27T05:57:57.406Z,16.32
2022-09-27T06:00:25.989Z,16.02
2022-09-27T06:02:58.899Z,16.37
2022-09-27T06:05:27.564Z,15.80
2022-09-27T06:07:59.511Z,16.39
2022-09-27T06:10:27.270Z,16.43
2022-09-27T06:12:55.954Z,16.45
2022-09-27T06:15:23.711Z,16.44
2022-09-27T06:17:51.394Z,16.41
2022-09-27T06:20:20.716Z,16.43
2022-09-27T06:22:48.440Z,16.41
2022-09-27T06:25:16.814Z,16.43
2022-09-27T06:27:44.537Z,16.50
2022-09-27T06:30:15.817Z,16.51
2022-09-27T06:32:45.867Z,16.57
2022-09-27T06:35:13.562Z,16.59
2022-09-27T06:37:42.916Z,16.61
2022-09-27T06:40:11.145Z,16.63
2022-09-27T06:42:40.359Z,16.64
2022-09-27T06:45:08.804Z,16.67
2022-09-27T06:47:36.862Z,16.54
2022-09-27T06:50:05.952Z,16.72
2022-09-27T06:52:33.662Z,16.76
2022-09-27T06:55:02.666Z,16.67
2022-09-27T06:57:56.397Z,16.50
2022-09-27T07:00:27.592Z,16.27
2022-09-27T07:02:58.520Z,16.29
2022-09-27T07:05:26.708Z,16.32
2022-09-27T07:07:57.628Z,16.34
2022-09-27T07:10:27.405Z,16.42
2022-09-27T07:12:55.138Z,16.10
2022-09-27T07:15:23.290Z,16.24
2022-09-27T07:17:57.243Z,16.45
2022-09-27T07:20:25.001Z,16.45
2022-09-27T07:22:52.728Z,16.42
2022-09-27T07:25:20.400Z,16.45
2022-09-27T07:27:49.720Z,16.48
2022-09-27T07:30:17.522Z,16.35
2022-09-27T07:32:45.264Z,16.59
2022-09-27T07:35:15.086Z,16.35
2022-09-27T07:37:42.836Z,16.71
2022-09-27T07:40:10.936Z,16.36
2022-09-27T07:42:39.255Z,16.46
2022-09-27T07:45:09.844Z,16.79
2022-09-27T07:47:38.737Z,16.83
2022-09-27T07:50:06.615Z,16.86
2022-09-27T07:52:40.229Z,16.91
2022-09-27T07:55:08.788Z,16.92
2022-09-27T07:57:36.488Z,16.93
2022-09-27T08:00:04.689Z,16.96
2022-09-27T08:02:33.931Z,16.89
2022-09-27T08:05:01.672Z,16.98
2022-09-27T08:07:29.959Z,16.81
2022-09-27T08:09:57.606Z,17.06
2022-09-27T08:12:25.354Z,17.13
2022-09-27T08:14:53.148Z,17.19
2022-09-27T08:17:20.846Z,17.21
2022-09-27T08:19:49.933Z,17.25
2022-09-27T08:22:17.638Z,16.90
2022-09-27T08:24:45.387Z,17.27
2022-09-27T08:27:13.425Z,17.29
2022-09-27T08:29:42.075Z,17.22
2022-09-27T08:32:09.827Z,17.31
2022-09-27T08:34:37.527Z,17.31
2022-09-27T08:37:06.525Z,17.03
2022-09-27T08:39:34.211Z,17.28
2022-09-27T08:42:05.265Z,17.29
2022-09-27T08:47:00.607Z,17.29
2022-09-27T08:49:29.868Z,16.99
2022-09-27T08:51:57.528Z,17.31
2022-09-27T08:54:29.984Z,17.30
2022-09-27T08:57:00.027Z,17.30
2022-09-27T08:59:29.340Z,17.25
2022-09-27T09:01:57.051Z,17.27
2022-09-27T09:04:27.424Z,17.28
2022-09-27T09:06:59.917Z,17.31
2022-09-27T09:09:32.585Z,17.35
2022-09-27T09:12:19.738Z,17.33
2022-09-27T09:14:57.653Z,17.39
2022-09-27T09:17:30.348Z,17.38
2022-09-27T09:20:16.798Z,17.41
2022-09-27T09:22:54.131Z,17.40
2022-09-27T09:25:25.656Z,17.31
2022-09-27T09:28:02.273Z,17.04
2022-09-27T09:30:33.435Z,17.43
2022-09-27T09:33:10.111Z,17.43
2022-09-27T09:35:39.931Z,17.43
2022-09-27T09:38:10.559Z,17.41
2022-09-27T09:40:41.491Z,17.45
2022-09-27T09:43:11.780Z,17.44
2022-09-27T09:45:41.691Z,17.43
2022-09-27T09:48:12.291Z,17.42
2022-09-27T09:50:42.338Z,17.09
2022-09-27T09:53:12.909Z,17.37
2022-09-27T09:55:42.565Z,17.35
2022-09-27T09:58:20.132Z,17.33
2022-09-27T10:00:47.972Z,17.18
2022-09-27T10:03:15.782Z,17.17
2022-09-27T10:05:44.361Z,17.15
2022-09-27T10:08:14.145Z,17.17
2022-09-27T10:10:43.216Z,16.40
2022-09-27T10:13:11.060Z,17.22
2022-09-27T10:15:38.716Z,17.23
2022-09-27T10:18:06.519Z,17.21
2022-09-27T10:20:35.146Z,16.91
2022-09-27T10:23:06.205Z,17.26
2022-09-27T10:25:48.372Z,17.24
2022-09-27T10:28:37.209Z,17.05
2022-09-27T10:31:06.167Z,17.10
2022-09-27T10:33:33.870Z,17.37
2022-09-27T10:36:02.057Z,16.97
2022-09-27T10:38:31.658Z,17.41
2022-09-27T10:41:17.957Z,17.44
2022-09-27T10:43:45.839Z,17.44
2022-09-27T10:46:26.662Z,17.17
2022-09-27T10:49:09.318Z,17.49
2022-09-27T10:51:37.010Z,17.50
2022-09-27T10:54:04.828Z,17.53
2022-09-27T10:56:34.810Z,17.20
2022-09-27T10:59:02.961Z,17.57
2022-09-27T11:01:40.288Z,17.56
2022-09-27T11:04:08.155Z,17.46
2022-09-27T11:06:38.248Z,17.51
2022-09-27T11:09:23.278Z,17.49
2022-09-27T11:11:52.531Z,17.43
2022-09-27T11:14:21.944Z,17.34
2022-09-27T11:17:05.908Z,17.50
2022-09-27T11:19:44.606Z,17.51
2022-09-27T11:22:20.599Z,17.51
2022-09-27T11:24:55.750Z,17.50
2022-09-27T11:27:29.525Z,17.56
2022-09-27T11:30:04.519Z,17.40
2022-09-27T11:32:39.099Z,17.22
2022-09-27T11:35:15.508Z,17.18
2022-09-27T11:37:46.285Z,17.56
2022-09-27T11:40:23.577Z,17.53
2022-09-27T11:43:11.774Z,17.10
2022-09-27T11:49:02.947Z,17.22
2022-09-27T11:51:34.420Z,17.22
2022-09-27T11:54:08.046Z,17.25
2022-09-27T11:56:41.312Z,17.11
2022-09-27T11:59:31.742Z,16.92
2022-09-27T12:02:02.604Z,17.18
2022-09-27T12:04:52.974Z,17.24
2022-09-27T12:07:22.465Z,16.88
2022-09-27T12:09:51.926Z,17.26
2022-09-27T12:12:21.496Z,17.25
2022-09-27T12:14:51.632Z,17.30
2022-09-27T12:17:19.844Z,17.28
2022-09-27T12:19:50.432Z,17.31
2022-09-27T12:22:34.614Z,17.06
2022-09-27T12:25:03.560Z,16.96
2022-09-27T12:27:36.277Z,17.03
2022-09-27T12:30:06.452Z,17.36
2022-09-27T12:32:35.143Z,17.46
2022-09-27T12:35:04.764Z,17.49
2022-09-27T12:37:33.950Z,17.50
2022-09-27T12:40:02.903Z,17.12
2022-09-27T12:42:32.956Z,17.41
2022-09-27T12:45:00.647Z,17.54
2022-09-27T12:47:39.545Z,17.57
2022-09-27T12:50:11.149Z,17.60
2022-09-27T12:52:41.256Z,17.39
2022-09-27T12:55:22.265Z,17.64
2022-09-27T12:57:52.919Z,17.38
2022-09-27T13:00:21.954Z,17.73
2022-09-27T13:03:32.492Z,17.79
2022-09-27T13:06:25.818Z,17.79
2022-09-27T13:09:04.457Z,17.64
2022-09-27T13:11:40.721Z,17.70
2022-09-27T13:14:11.515Z,17.73
2022-09-27T13:16:43.647Z,17.50
2022-09-27T13:19:39.384Z,17.82
2022-09-27T13:22:08.720Z,17.88
2022-09-27T13:24:48.149Z,17.95
2022-09-27T13:27:38.364Z,18.00
2022-09-27T13:30:48.596Z,18.03
2022-09-27T13:33:40.097Z,18.01
2022-09-27T13:36:28.369Z,18.01
2022-09-27T13:39:15.798Z,18.01
2022-09-27T13:41:59.031Z,17.66
2022-09-27T13:44:27.542Z,18.06
2022-09-27T13:46:58.260Z,18.09
2022-09-27T13:49:29.218Z,18.10
2022-09-27T13:51:58.209Z,18.10
2022-09-27T13:54:41.971Z,17.80
2022-09-27T13:57:43.846Z,18.06
2022-09-27T14:00:12.869Z,18.02
2022-09-27T14:02:43.183Z,18.00
2022-09-27T14:05:11.071Z,17.98
2022-09-27T14:07:42.417Z,17.48
2022-09-27T14:10:14.250Z,17.93
2022-09-27T14:12:41.939Z,17.90
2022-09-27T14:15:10.535Z,17.56
2022-09-27T14:17:45.771Z,17.90
2022-09-27T14:20:33.030Z,17.94
2022-09-27T14:23:00.883Z,17.98
2022-09-27T14:25:29.902Z,18.06
2022-09-27T14:27:58.562Z,18.08
2022-09-27T14:30:27.762Z,17.81
2022-09-27T14:32:58.445Z,18.20
2022-09-27T14:35:40.514Z,18.21
2022-09-27T14:38:33.138Z,17.83
2022-09-27T14:41:02.522Z,17.87
2022-09-27T14:43:30.726Z,18.22
2022-09-27T14:45:59.254Z,18.09
2022-09-27T14:48:29.103Z,18.16
2022-09-27T14:51:04.770Z,17.81
2022-09-27T14:53:34.127Z,18.07
2022-09-27T14:56:03.571Z,17.87
2022-09-27T14:58:46.743Z,18.03
2022-09-27T15:01:16.533Z,18.00
2022-09-27T15:03:44.798Z,17.72
2022-09-27T15:06:12.617Z,17.96
2022-09-27T15:08:40.312Z,17.94
2022-09-27T15:11:10.783Z,17.92
2022-09-27T15:13:38.567Z,17.92
2022-09-27T15:16:09.203Z,17.90
2022-09-27T15:18:43.795Z,17.78
2022-09-27T15:21:12.407Z,17.44
2022-09-27T15:23:41.448Z,17.87
2022-09-27T15:26:12.857Z,17.86
2022-09-27T15:28:43.732Z,17.86
2022-09-27T15:31:11.460Z,17.86
2022-09-27T15:33:39.206Z,17.84
2022-09-27T15:36:08.014Z,17.59
2022-09-27T15:38:35.887Z,17.83
2022-09-27T15:41:15.065Z,17.44
2022-09-27T15:43:45.533Z,17.80
2022-09-27T15:46:35.106Z,17.81
2022-09-27T15:49:27.936Z,17.79
2022-09-27T15:51:56.056Z,17.75
2022-09-27T15:54:24.903Z,17.35
2022-09-27T15:56:56.007Z,17.58
2022-09-27T15:59:25.405Z,17.18
2022-09-27T16:01:56.047Z,17.70
2022-09-27T16:04:23.856Z,17.68
2022-09-27T16:06:51.761Z,17.67
2022-09-27T16:09:19.786Z,17.66
2022-09-27T16:11:47.897Z,17.64
2022-09-27T16:14:18.553Z,17.34
2022-09-27T16:16:47.282Z,17.62
2022-09-27T16:19:15.018Z,17.59
2022-09-27T16:21:43.792Z,17.59
2022-09-27T16:24:11.640Z,17.57
2022-09-27T16:26:39.540Z,17.56
2022-09-27T16:29:10.476Z,17.55
2022-09-27T16:31:39.931Z,17.52
2022-09-27T16:34:07.720Z,17.50
2022-09-27T16:36:36.021Z,17.49
2022-09-27T16:39:05.790Z,17.48
2022-09-27T16:41:34.077Z,17.46
2022-09-27T16:44:07.099Z,17.45
2022-09-27T16:46:35.610Z,17.42
2022-09-27T16:49:04.660Z,17.42
2022-09-27T16:51:49.663Z,17.42
2022-09-27T16:54:17.934Z,17.40
2022-09-27T16:56:46.028Z,17.00
2022-09-27T16:59:14.088Z,17.38
2022-09-27T17:01:41.830Z,17.37
2022-09-27T17:04:10.993Z,17.36
2022-09-27T17:06:38.774Z,17.37
2022-09-27T17:09:06.519Z,17.37
2022-09-27T17:11:34.204Z,17.35
2022-09-27T17:14:01.883Z,17.34
2022-09-27T17:16:29.622Z,17.34
2022-09-27T17:18:57.408Z,17.32
2022-09-27T17:21:26.410Z,17.32
2022-09-27T17:23:54.320Z,17.30
2022-09-27T17:26:22.569Z,17.30
2022-09-27T17:28:50.428Z,17.30
2022-09-27T17:31:18.986Z,17.28
2022-09-27T17:33:47.405Z,17.26
2022-09-27T17:36:17.311Z,16.89
2022-09-27T17:38:46.596Z,17.25
2022-09-27T17:41:15.108Z,17.24
2022-09-27T17:43:48.876Z,16.89
2022-09-27T17:46:17.300Z,17.25
2022-09-27T17:49:02.496Z,17.24
2022-09-27T17:51:31.272Z,17.23
2022-09-27T17:54:00.396Z,17.23
2022-09-27T17:56:28.056Z,17.20
2022-09-27T17:58:56.650Z,17.21
2022-09-27T18:01:25.242Z,16.80
2022-09-27T18:03:54.263Z,17.19
2022-09-27T18:06:21.986Z,17.19
2022-09-27T18:08:49.715Z,17.17
2022-09-27T18:11:19.582Z,17.03
2022-09-27T18:13:47.277Z,17.16
2022-09-27T18:16:16.662Z,16.80
2022-09-27T18:18:45.092Z,17.15
2022-09-27T18:21:14.223Z,17.16
2022-09-27T18:23:42.159Z,17.14
2022-09-27T18:26:10.300Z,16.80
2022-09-27T18:28:39.977Z,17.12
2022-09-27T18:31:09.222Z,17.11
2022-09-27T18:33:37.380Z,16.96
2022-09-27T18:36:06.021Z,17.10
2022-09-27T18:38:33.948Z,16.38
2022-09-27T18:41:06.516Z,17.10
2022-09-27T18:43:38.588Z,17.09
2022-09-27T18:46:33.845Z,16.81
2022-09-27T18:48:56.587Z,17.06
2022-09-27T18:51:26.442Z,17.05
2022-09-27T18:53:55.247Z,16.91
2022-09-27T18:56:22.937Z,17.04
2022-09-27T18:58:51.163Z,17.05
2022-09-27T19:01:20.711Z,16.71
2022-09-27T19:03:48.974Z,17.03
2022-09-27T19:06:17.671Z,16.71
2022-09-27T19:08:45.443Z,16.87
2022-09-27T19:11:14.019Z,17.02
2022-09-27T19:13:50.283Z,17.00
2022-09-27T19:16:21.690Z,16.99
2022-09-27T19:18:49.559Z,16.61
2022-09-27T19:21:18.890Z,16.98
2022-09-27T19:23:46.652Z,16.77
2022-09-27T19:26:15.278Z,16.98
2022-09-27T19:28:43.813Z,16.96
2022-09-27T19:31:13.401Z,16.97
2022-09-27T19:33:42.486Z,16.95
2022-09-27T19:36:11.349Z,16.94
2022-09-27T19:38:39.295Z,16.94
2022-09-27T19:41:07.953Z,16.93
2022-09-27T19:43:35.640Z,16.92
2022-09-27T19:46:06.550Z,16.92
2022-09-27T19:48:34.366Z,16.92
2022-09-27T19:51:03.468Z,16.91
2022-09-27T19:53:32.367Z,16.89
2022-09-27T19:56:00.298Z,16.78
2022-09-27T19:58:28.412Z,16.54
2022-09-27T20:01:00.668Z,16.61
2022-09-27T20:03:28.683Z,16.89
2022-09-27T20:05:56.524Z,16.87
2022-09-27T20:08:25.588Z,16.89
2022-09-27T20:10:57.176Z,16.86
2022-09-27T20:13:24.975Z,16.84
2022-09-27T20:15:54.671Z,16.83
2022-09-27T20:18:22.506Z,16.81
2022-09-27T20:20:50.203Z,16.82
2022-09-27T20:23:20.041Z,16.81
2022-09-27T20:25:49.332Z,16.80
2022-09-27T20:28:17.016Z,16.79
2022-09-27T20:30:44.693Z,16.78
2022-09-27T20:33:29.790Z,16.80
2022-09-27T20:35:58.491Z,16.78
2022-09-27T20:38:26.215Z,16.78
2022-09-27T20:40:55.890Z,16.78
2022-09-27T20:43:26.434Z,16.76
2022-09-27T20:45:54.136Z,16.77
2022-09-27T20:48:21.826Z,16.78
2022-09-27T20:50:49.487Z,16.78
2022-09-27T20:53:17.168Z,16.76
2022-09-27T20:55:44.838Z,16.74
2022-09-27T20:58:13.842Z,16.73
2022-09-27T21:00:41.569Z,16.73
2022-09-27T21:03:09.297Z,16.72
2022-09-27T21:05:36.968Z,16.72
2022-09-27T21:08:04.673Z,16.72
2022-09-27T21:10:32.411Z,16.71
2022-09-27T21:13:00.123Z,16.71
2022-09-27T21:15:29.191Z,16.72
2022-09-27T21:17:57.741Z,16.71
2022-09-27T21:20:25.699Z,16.71
2022-09-27T21:22:53.395Z,16.72
2022-09-27T21:25:21.070Z,16.70
2022-09-27T21:27:53.405Z,16.70
2022-09-27T21:30:21.346Z,16.38
2022-09-27T21:32:53.785Z,16.64
2022-09-27T21:35:21.604Z,16.66
2022-09-27T21:37:49.310Z,16.66
2022-09-27T21:40:17.387Z,16.65
2022-09-27T21:42:45.157Z,16.65
2022-09-27T21:45:12.842Z,16.67
2022-09-27T21:47:40.546Z,16.66
2022-09-27T21:50:10.292Z,16.66
2022-09-27T21:52:37.990Z,16.64
2022-09-27T21:55:07.162Z,16.44
2022-09-27T21:57:35.279Z,16.64
2022-09-27T22:00:03.280Z,16.64
2022-09-27T22:02:31.077Z,16.63
2022-09-27T22:04:59.618Z,16.61
2022-09-27T22:07:28.666Z,16.62
2022-09-27T22:09:56.849Z,16.61
2022-09-27T22:12:24.604Z,16.60
2022-09-27T22:14:52.275Z,16.58
2022-09-27T22:17:19.999Z,16.59
2022-09-27T22:19:47.840Z,16.54
2022-09-27T22:22:15.545Z,16.57
2022-09-27T22:24:44.571Z,16.47
2022-09-27T22:27:12.272Z,16.55
2022-09-27T22:29:39.935Z,16.57
2022-09-27T22:32:07.636Z,16.56
2022-09-27T22:34:35.312Z,16.55
2022-09-27T22:37:03.123Z,16.56
2022-09-27T22:39:30.830Z,16.54
2022-09-27T22:41:59.941Z,16.52
2022-09-27T22:44:27.592Z,16.48
2022-09-27T22:46:55.657Z,16.53
2022-09-27T22:49:24.203Z,16.52
2022-09-27T22:51:51.894Z,16.53
2022-09-27T22:54:20.048Z,16.42
2022-09-27T22:56:47.778Z,16.50
2022-09-27T22:59:17.810Z,16.48
2022-09-27T23:01:45.712Z,16.45
2022-09-27T23:04:14.104Z,16.44
2022-09-27T23:06:42.783Z,16.42
2022-09-27T23:09:10.847Z,16.43
2022-09-27T23:11:38.576Z,16.42
2022-09-27T23:14:06.406Z,16.43
2022-09-27T23:16:35.920Z,16.03
2022-09-27T23:19:03.849Z,16.44
2022-09-27T23:21:32.056Z,16.42
2022-09-27T23:24:01.534Z,16.42
2022-09-27T23:26:29.480Z,15.97
2022-09-27T23:28:57.786Z,16.41
2022-09-27T23:31:25.665Z,16.41
2022-09-27T23:33:54.685Z,16.41
2022-09-27T23:36:24.018Z,16.39
2022-09-27T23:38:51.714Z,16.39
2022-09-27T23:41:19.601Z,16.39
2022-09-27T23:43:48.429Z,16.29
2022-09-27T23:46:16.128Z,16.37
2022-09-27T23:48:44.588Z,16.02
2022-09-27T23:51:13.679Z,16.39
2022-09-27T23:53:41.480Z,16.39
2022-09-27T23:56:09.996Z,16.35
2022-09-27T23:58:38.260Z,15.99
